SWA1421 KMKE-KDTW
Flight info
| Callsign | SWA1421 |
|---|---|
| Flight time | 0h 45m |
| Altitude | 33000 |
| Route | SQUIB DUUDA RKCTY2 |
| Aircraft | B736/M-SDE2E3FGHIRWXY/LB1 |
Departure
| Time | 2026-04-24 03:36 |
|---|---|
| Airport | General Mitchell International Airport (KMKE) |
Arrival
| Time | 2026-04-24 04:22 |
|---|---|
| Airport | Detroit Metropolitan Wayne County Airport (KDTW) |
| Time | Latitude | Longitude | Altitude | Speed | Heading |
|---|---|---|---|---|---|
| 2026-04-24 02:59 | 42.94991 | -87.90039 | 687 ft | 0 kts | 313° |
| 2026-04-24 03:22 | 42.94987 | -87.90034 | 687 ft | 4 kts | 312° |
| 2026-04-24 03:22 | 42.94969 | -87.90006 | 679 ft | 4 kts | 311° |
| 2026-04-24 03:23 | 42.94951 | -87.89985 | 682 ft | 4 kts | 328° |
| 2026-04-24 03:23 | 42.94938 | -87.89974 | 680 ft | 2 kts | 20° |
| 2026-04-24 03:23 | 42.94929 | -87.89977 | 683 ft | 3 kts | 14° |
| 2026-04-24 03:23 | 42.94939 | -87.89969 | 684 ft | 1 kts | 40° |
| 2026-04-24 03:24 | 42.94942 | -87.89965 | 683 ft | 0 kts | 43° |
| 2026-04-24 03:29 | 42.94948 | -87.89956 | 684 ft | 3 kts | 46° |
| 2026-04-24 03:29 | 42.94968 | -87.89911 | 683 ft | 9 kts | 68° |
| 2026-04-24 03:29 | 42.94987 | -87.89806 | 687 ft | 13 kts | 92° |
| 2026-04-24 03:29 | 42.94972 | -87.89690 | 686 ft | 13 kts | 94° |
| 2026-04-24 03:30 | 42.94995 | -87.89588 | 684 ft | 14 kts | 31° |
| 2026-04-24 03:30 | 42.95090 | -87.89567 | 685 ft | 14 kts | 7° |
| 2026-04-24 03:30 | 42.95198 | -87.89548 | 685 ft | 17 kts | 7° |
| 2026-04-24 03:30 | 42.95319 | -87.89527 | 685 ft | 18 kts | 7° |
| 2026-04-24 03:31 | 42.95413 | -87.89511 | 687 ft | 2 kts | 7° |
| 2026-04-24 03:31 | 42.95427 | -87.89509 | 685 ft | 2 kts | 7° |
| 2026-04-24 03:31 | 42.95439 | -87.89507 | 685 ft | 2 kts | 7° |
| 2026-04-24 03:31 | 42.95443 | -87.89507 | 685 ft | 0 kts | 6° |
| 2026-04-24 03:32 | 42.95443 | -87.89506 | 685 ft | 0 kts | 6° |
| 2026-04-24 03:32 | 42.95465 | -87.89503 | 683 ft | 8 kts | 6° |
| 2026-04-24 03:32 | 42.95542 | -87.89491 | 685 ft | 13 kts | 7° |
| 2026-04-24 03:32 | 42.95644 | -87.89474 | 684 ft | 16 kts | 7° |
| 2026-04-24 03:33 | 42.95715 | -87.89458 | 684 ft | 7 kts | 18° |
| 2026-04-24 03:33 | 42.95738 | -87.89433 | 686 ft | 0 kts | 56° |
| 2026-04-24 03:34 | 42.95739 | -87.89429 | 687 ft | 3 kts | 63° |
| 2026-04-24 03:35 | 42.95745 | -87.89388 | 687 ft | 6 kts | 83° |
| 2026-04-24 03:35 | 42.95731 | -87.89320 | 679 ft | 9 kts | 138° |
| 2026-04-24 03:35 | 42.95668 | -87.89318 | 684 ft | 11 kts | 186° |
| 2026-04-24 03:35 | 42.95429 | -87.89360 | 683 ft | 68 kts | 187° |
| 2026-04-24 03:36 | 42.94756 | -87.89476 | 683 ft | 126 kts | 187° |
| 2026-04-24 03:36 | 42.93778 | -87.89661 | 901 ft | 149 kts | 186° |
| 2026-04-24 03:36 | 42.92797 | -87.89833 | 1627 ft | 136 kts | 187° |
| 2026-04-24 03:36 | 42.91918 | -87.90389 | 2070 ft | 156 kts | 220° |
| 2026-04-24 03:37 | 42.91418 | -87.91860 | 2355 ft | 194 kts | 257° |
| 2026-04-24 03:37 | 42.91675 | -87.93867 | 2553 ft | 242 kts | 288° |
| 2026-04-24 03:37 | 42.92848 | -87.95756 | 3004 ft | 279 kts | 320° |
| 2026-04-24 03:37 | 42.94687 | -87.96770 | 3858 ft | 294 kts | 347° |
| 2026-04-24 03:38 | 42.96750 | -87.96901 | 4787 ft | 301 kts | 6° |
| 2026-04-24 03:38 | 42.98684 | -87.95812 | 5713 ft | 306 kts | 39° |
| 2026-04-24 03:38 | 42.99958 | -87.93552 | 6659 ft | 300 kts | 71° |
| 2026-04-24 03:38 | 43.00432 | -87.90823 | 7669 ft | 295 kts | 89° |
| 2026-04-24 03:39 | 43.00568 | -87.88013 | 8631 ft | 299 kts | 90° |
| 2026-04-24 03:39 | 43.00667 | -87.85160 | 9687 ft | 302 kts | 90° |
| 2026-04-24 03:39 | 43.00760 | -87.82271 | 10570 ft | 310 kts | 90° |
| 2026-04-24 03:39 | 43.00857 | -87.79209 | 11010 ft | 334 kts | 90° |
| 2026-04-24 03:40 | 43.00966 | -87.75990 | 11810 ft | 342 kts | 89° |
| 2026-04-24 03:40 | 43.01083 | -87.72728 | 12811 ft | 345 kts | 89° |
| 2026-04-24 03:40 | 43.01205 | -87.69435 | 13808 ft | 349 kts | 89° |
| 2026-04-24 03:40 | 43.01331 | -87.66095 | 14684 ft | 354 kts | 89° |
| 2026-04-24 03:41 | 43.01459 | -87.62713 | 15581 ft | 359 kts | 89° |
| 2026-04-24 03:41 | 43.01583 | -87.59277 | 16481 ft | 364 kts | 89° |
| 2026-04-24 03:41 | 43.01703 | -87.55799 | 17371 ft | 370 kts | 89° |
| 2026-04-24 03:41 | 43.01709 | -87.55616 | 17419 ft | 370 kts | 89° |
| 2026-04-24 03:42 | 43.01795 | -87.53114 | 18062 ft | 374 kts | 89° |
| 2026-04-24 03:43 | 43.01919 | -87.49548 | 18837 ft | 379 kts | 89° |
| 2026-04-24 03:43 | 43.02049 | -87.45907 | 19615 ft | 385 kts | 89° |
| 2026-04-24 03:43 | 43.02181 | -87.42236 | 20420 ft | 390 kts | 88° |
| 2026-04-24 03:43 | 43.02316 | -87.38512 | 21211 ft | 395 kts | 88° |
| 2026-04-24 03:44 | 43.02453 | -87.34734 | 21955 ft | 401 kts | 88° |
| 2026-04-24 03:44 | 43.02591 | -87.30909 | 22739 ft | 406 kts | 88° |
| 2026-04-24 03:44 | 43.02729 | -87.27034 | 23503 ft | 411 kts | 87° |
| 2026-04-24 03:44 | 43.02868 | -87.23115 | 24150 ft | 415 kts | 88° |
| 2026-04-24 03:45 | 43.03007 | -87.19154 | 24823 ft | 419 kts | 88° |
| 2026-04-24 03:45 | 43.03146 | -87.15162 | 25483 ft | 423 kts | 88° |
| 2026-04-24 03:45 | 43.03285 | -87.11119 | 26119 ft | 428 kts | 88° |
| 2026-04-24 03:45 | 43.03423 | -87.07034 | 26733 ft | 432 kts | 88° |
| 2026-04-24 03:46 | 43.03561 | -87.02926 | 27436 ft | 434 kts | 88° |
| 2026-04-24 03:46 | 43.03698 | -86.98808 | 28301 ft | 432 kts | 88° |
| 2026-04-24 03:46 | 43.03833 | -86.94723 | 29206 ft | 429 kts | 88° |
| 2026-04-24 03:46 | 43.03965 | -86.90649 | 30009 ft | 429 kts | 88° |
| 2026-04-24 03:47 | 43.04094 | -86.86629 | 30605 ft | 431 kts | 88° |
| 2026-04-24 03:47 | 43.04225 | -86.82534 | 30800 ft | 431 kts | 88° |
| 2026-04-24 03:47 | 43.04353 | -86.78457 | 30812 ft | 429 kts | 87° |
| 2026-04-24 03:48 | 43.04605 | -86.70301 | 30835 ft | 429 kts | 87° |
| 2026-04-24 03:48 | 43.04777 | -86.64607 | 30831 ft | 430 kts | 87° |
| 2026-04-24 03:49 | 43.05020 | -86.56451 | 30836 ft | 430 kts | 87° |
| 2026-04-24 03:49 | 43.05257 | -86.48279 | 30838 ft | 429 kts | 87° |
| 2026-04-24 03:50 | 43.05487 | -86.40126 | 30844 ft | 429 kts | 87° |
| 2026-04-24 03:50 | 43.05712 | -86.31981 | 30840 ft | 428 kts | 87° |
| 2026-04-24 03:51 | 43.05930 | -86.23846 | 30838 ft | 428 kts | 87° |
| 2026-04-24 03:51 | 43.06143 | -86.15722 | 30839 ft | 427 kts | 87° |
| 2026-04-24 03:52 | 43.06349 | -86.07603 | 30848 ft | 427 kts | 87° |
| 2026-04-24 03:52 | 43.06550 | -85.99486 | 30840 ft | 427 kts | 87° |
| 2026-04-24 03:53 | 43.06745 | -85.91379 | 30834 ft | 427 kts | 87° |
| 2026-04-24 03:53 | 43.06934 | -85.83265 | 30845 ft | 427 kts | 87° |
| 2026-04-24 03:54 | 43.07117 | -85.75152 | 30843 ft | 427 kts | 87° |
| 2026-04-24 03:54 | 43.07295 | -85.67033 | 30849 ft | 427 kts | 87° |
| 2026-04-24 03:55 | 43.07468 | -85.58918 | 30852 ft | 427 kts | 87° |
| 2026-04-24 03:55 | 43.07677 | -85.50808 | 30855 ft | 426 kts | 84° |
| 2026-04-24 03:55 | 43.07985 | -85.46769 | 30664 ft | 428 kts | 81° |
| 2026-04-24 03:56 | 43.08389 | -85.42733 | 30150 ft | 428 kts | 80° |
| 2026-04-24 03:56 | 43.08818 | -85.38710 | 29485 ft | 428 kts | 80° |
| 2026-04-24 03:56 | 43.09241 | -85.34688 | 28956 ft | 423 kts | 80° |
| 2026-04-24 03:56 | 43.09640 | -85.30724 | 28424 ft | 419 kts | 81° |
| 2026-04-24 03:57 | 43.10020 | -85.26795 | 27944 ft | 414 kts | 81° |
| 2026-04-24 03:57 | 43.10565 | -85.20998 | 27201 ft | 408 kts | 81° |
| 2026-04-24 03:57 | 43.11249 | -85.13571 | 26264 ft | 401 kts | 81° |
| 2026-04-24 03:57 | 43.11712 | -85.08515 | 25644 ft | 396 kts | 82° |
| 2026-04-24 03:58 | 43.12056 | -85.04747 | 25188 ft | 392 kts | 82° |
| 2026-04-24 03:58 | 43.12389 | -85.01090 | 24780 ft | 390 kts | 82° |
| 2026-04-24 03:58 | 43.12726 | -84.97389 | 24163 ft | 396 kts | 82° |
| 2026-04-24 03:58 | 43.13074 | -84.93547 | 23587 ft | 411 kts | 82° |
| 2026-04-24 03:59 | 43.13390 | -84.89612 | 22960 ft | 416 kts | 88° |
| 2026-04-24 03:59 | 43.13059 | -84.85811 | 22781 ft | 402 kts | 104° |
| 2026-04-24 03:59 | 43.11967 | -84.82344 | 22377 ft | 396 kts | 122° |
| 2026-04-24 03:59 | 43.10447 | -84.79234 | 22033 ft | 391 kts | 125° |
| 2026-04-24 04:00 | 43.08879 | -84.76191 | 21664 ft | 394 kts | 125° |
| 2026-04-24 04:00 | 43.07284 | -84.73118 | 21303 ft | 397 kts | 125° |
| 2026-04-24 04:00 | 43.05695 | -84.70033 | 20931 ft | 396 kts | 125° |
| 2026-04-24 04:00 | 43.04123 | -84.66951 | 20567 ft | 393 kts | 125° |
| 2026-04-24 04:01 | 43.02571 | -84.63889 | 20212 ft | 391 kts | 124° |
| 2026-04-24 04:01 | 43.01030 | -84.60838 | 19848 ft | 389 kts | 124° |
| 2026-04-24 04:01 | 42.99499 | -84.57805 | 19500 ft | 387 kts | 124° |
| 2026-04-24 04:01 | 42.97971 | -84.54780 | 19143 ft | 386 kts | 124° |
| 2026-04-24 04:02 | 42.96451 | -84.51775 | 18797 ft | 384 kts | 124° |
| 2026-04-24 04:02 | 42.94938 | -84.48788 | 18449 ft | 382 kts | 124° |
| 2026-04-24 04:02 | 42.93438 | -84.45801 | 18084 ft | 380 kts | 124° |
| 2026-04-24 04:02 | 42.91964 | -84.42821 | 17693 ft | 378 kts | 124° |
| 2026-04-24 04:03 | 42.90502 | -84.39853 | 17336 ft | 375 kts | 124° |
| 2026-04-24 04:03 | 42.89052 | -84.36913 | 17022 ft | 372 kts | 124° |
| 2026-04-24 04:03 | 42.87611 | -84.33996 | 16678 ft | 369 kts | 124° |
| 2026-04-24 04:03 | 42.86179 | -84.31103 | 16335 ft | 367 kts | 124° |
| 2026-04-24 04:04 | 42.84752 | -84.28226 | 15999 ft | 365 kts | 124° |
| 2026-04-24 04:04 | 42.83333 | -84.25368 | 15662 ft | 363 kts | 124° |
| 2026-04-24 04:04 | 42.81922 | -84.22529 | 15332 ft | 361 kts | 124° |
| 2026-04-24 04:04 | 42.80515 | -84.19702 | 15000 ft | 360 kts | 124° |
| 2026-04-24 04:05 | 42.79113 | -84.16886 | 14671 ft | 358 kts | 124° |
| 2026-04-24 04:05 | 42.77718 | -84.14086 | 14358 ft | 356 kts | 125° |
| 2026-04-24 04:05 | 42.76330 | -84.11307 | 14037 ft | 355 kts | 125° |
| 2026-04-24 04:05 | 42.74948 | -84.08537 | 13705 ft | 353 kts | 125° |
| 2026-04-24 04:06 | 42.73572 | -84.05778 | 13350 ft | 352 kts | 125° |
| 2026-04-24 04:06 | 42.72205 | -84.03036 | 13002 ft | 349 kts | 125° |
| 2026-04-24 04:06 | 42.70848 | -84.00319 | 12668 ft | 345 kts | 125° |
| 2026-04-24 04:06 | 42.69519 | -83.97660 | 12341 ft | 336 kts | 125° |
| 2026-04-24 04:07 | 42.68719 | -83.95881 | 12125 ft | 331 kts | 116° |
| 2026-04-24 04:07 | 42.68016 | -83.92967 | 11840 ft | 320 kts | 105° |
| 2026-04-24 04:07 | 42.67488 | -83.90051 | 11546 ft | 315 kts | 104° |
| 2026-04-24 04:07 | 42.66979 | -83.87166 | 11252 ft | 314 kts | 104° |
| 2026-04-24 04:08 | 42.66465 | -83.84296 | 10977 ft | 312 kts | 104° |
| 2026-04-24 04:08 | 42.65770 | -83.80507 | 10600 ft | 311 kts | 105° |
| 2026-04-24 04:08 | 42.65414 | -83.78592 | 10401 ft | 309 kts | 105° |
| 2026-04-24 04:08 | 42.64889 | -83.75794 | 10120 ft | 303 kts | 105° |
| 2026-04-24 04:09 | 42.64370 | -83.73042 | 9907 ft | 295 kts | 105° |
| 2026-04-24 04:09 | 42.63870 | -83.70404 | 9598 ft | 287 kts | 105° |
| 2026-04-24 04:09 | 42.63375 | -83.67796 | 9334 ft | 283 kts | 105° |
| 2026-04-24 04:09 | 42.62884 | -83.65219 | 9039 ft | 281 kts | 105° |
| 2026-04-24 04:10 | 42.62388 | -83.62667 | 8761 ft | 277 kts | 107° |
| 2026-04-24 04:10 | 42.61863 | -83.60170 | 8510 ft | 274 kts | 108° |
| 2026-04-24 04:10 | 42.61332 | -83.57700 | 8254 ft | 271 kts | 108° |
| 2026-04-24 04:11 | 42.60649 | -83.54531 | 7915 ft | 268 kts | 108° |
| 2026-04-24 04:11 | 42.60127 | -83.52105 | 7683 ft | 269 kts | 108° |
| 2026-04-24 04:11 | 42.59600 | -83.49647 | 7445 ft | 274 kts | 108° |
| 2026-04-24 04:11 | 42.59063 | -83.47146 | 7193 ft | 277 kts | 108° |
| 2026-04-24 04:12 | 42.58525 | -83.44631 | 6927 ft | 277 kts | 108° |
| 2026-04-24 04:12 | 42.57988 | -83.42128 | 6670 ft | 276 kts | 108° |
| 2026-04-24 04:12 | 42.57458 | -83.39658 | 6414 ft | 276 kts | 109° |
| 2026-04-24 04:12 | 42.56850 | -83.37206 | 6146 ft | 274 kts | 115° |
| 2026-04-24 04:13 | 42.56112 | -83.34858 | 5976 ft | 263 kts | 116° |
| 2026-04-24 04:13 | 42.55403 | -83.32648 | 5889 ft | 249 kts | 116° |
| 2026-04-24 04:13 | 42.54721 | -83.30524 | 5833 ft | 243 kts | 116° |
| 2026-04-24 04:13 | 42.54035 | -83.28450 | 5790 ft | 240 kts | 121° |
| 2026-04-24 04:14 | 42.53221 | -83.26470 | 5749 ft | 240 kts | 123° |
| 2026-04-24 04:14 | 42.52382 | -83.24508 | 5712 ft | 241 kts | 123° |
| 2026-04-24 04:14 | 42.51534 | -83.22537 | 5667 ft | 242 kts | 123° |
| 2026-04-24 04:14 | 42.50663 | -83.20579 | 5617 ft | 242 kts | 130° |
| 2026-04-24 04:15 | 42.49390 | -83.19197 | 5473 ft | 233 kts | 161° |
| 2026-04-24 04:15 | 42.47845 | -83.18747 | 5293 ft | 223 kts | 181° |
| 2026-04-24 04:15 | 42.46310 | -83.18721 | 5206 ft | 220 kts | 184° |
| 2026-04-24 04:15 | 42.44774 | -83.18731 | 5125 ft | 222 kts | 184° |
| 2026-04-24 04:16 | 42.43225 | -83.18728 | 5051 ft | 224 kts | 184° |
| 2026-04-24 04:16 | 42.41687 | -83.18916 | 4878 ft | 220 kts | 202° |
| 2026-04-24 04:16 | 42.40319 | -83.19735 | 4652 ft | 212 kts | 208° |
| 2026-04-24 04:16 | 42.39034 | -83.20628 | 4498 ft | 199 kts | 211° |
| 2026-04-24 04:17 | 42.37817 | -83.21541 | 4115 ft | 200 kts | 211° |
| 2026-04-24 04:17 | 42.36614 | -83.22447 | 3828 ft | 196 kts | 211° |
| 2026-04-24 04:17 | 42.35452 | -83.23317 | 3579 ft | 185 kts | 211° |
| 2026-04-24 04:17 | 42.34373 | -83.24124 | 3347 ft | 174 kts | 211° |
| 2026-04-24 04:18 | 42.33337 | -83.24899 | 3121 ft | 163 kts | 211° |
| 2026-04-24 04:18 | 42.32384 | -83.25612 | 2910 ft | 153 kts | 210° |
| 2026-04-24 04:18 | 42.31473 | -83.26293 | 2725 ft | 146 kts | 210° |
| 2026-04-24 04:18 | 42.30606 | -83.26942 | 2525 ft | 137 kts | 210° |
| 2026-04-24 04:19 | 42.29792 | -83.27552 | 2368 ft | 133 kts | 209° |
| 2026-04-24 04:19 | 42.28975 | -83.28163 | 2199 ft | 135 kts | 209° |
| 2026-04-24 04:19 | 42.28186 | -83.28753 | 2003 ft | 128 kts | 208° |
| 2026-04-24 04:19 | 42.27434 | -83.29335 | 1911 ft | 124 kts | 210° |
| 2026-04-24 04:20 | 42.26695 | -83.29937 | 1842 ft | 125 kts | 209° |
| 2026-04-24 04:20 | 42.25944 | -83.30489 | 1657 ft | 127 kts | 207° |
| 2026-04-24 04:20 | 42.25168 | -83.31051 | 1432 ft | 127 kts | 207° |
| 2026-04-24 04:20 | 42.24398 | -83.31629 | 1275 ft | 127 kts | 207° |
| 2026-04-24 04:21 | 42.23607 | -83.32217 | 1137 ft | 132 kts | 207° |
| 2026-04-24 04:21 | 42.22780 | -83.32810 | 899 ft | 136 kts | 208° |
| 2026-04-24 04:21 | 42.21984 | -83.33396 | 691 ft | 125 kts | 209° |
| 2026-04-24 04:21 | 42.21280 | -83.33915 | 651 ft | 98 kts | 208° |
| 2026-04-24 04:22 | 42.20819 | -83.34255 | 650 ft | 55 kts | 209° |
| 2026-04-24 04:22 | 42.20628 | -83.34446 | 650 ft | 30 kts | 231° |
| 2026-04-24 04:22 | 42.20559 | -83.34582 | 649 ft | 12 kts | 237° |